Latest Coastal Weather Observations for Aireys Inlet

IDV60701

Issued at 1:41 pm EST Sunday 30 August 2015 (issued every 10 minutes, with the page automatically refreshed every 10 minutes)

About coastal observations | Map of coastal stations | Coastal observations for VIC | Marine services | Other Formats
Station Details ID: 090180 Name: AIREYS INLET Lat: -38.46 Lon: 144.09 Height: 95.0 m
Data from the previous 72 hours. | See also: Recent months at Aireys Inlet
Date/Time
EST
Temp

°C
Wind Pressure Rain
since 9am
mm
Weather Cloud Vis
km
Sea
Height
m
Swell
Dir
 
Speed
knots
Gust
knots
hPa Trend Height
m
Period
s
Dir
30/01:30pm 11.3 SSW 9 14 - - 0.0 - - - - - - -
30/01:00pm 11.4 SSW 11 16 - - 0.0 - - - - - - -
30/12:30pm 11.5 SW 12 18 - - 0.0 - - - - - - -
30/12:00pm 12.3 SW 11 16 - - 0.0 - - - - - - -
30/11:30am 10.7 SW 12 18 - - 0.0 - - - - - - -
30/11:00am 10.3 SW 12 19 - - 0.0 - - - - - - -
30/10:30am 10.3 SSW 11 18 - - 0.0 - - - - - - -
30/10:00am 9.9 SSW 12 18 - - 0.0 - - - - - - -
30/09:30am 9.8 SSW 13 20 - - 0.0 - - - - - - -
30/09:00am 9.7 SSW 12 19 - - 0.6 - - - - - - -
30/08:30am 9.4 SSW 14 21 - - 0.6 - - - - - - -
30/08:00am 9.3 SSW 14 21 - - 0.6 - - - - - - -
30/07:30am 9.2 SSW 15 22 - - 0.6 - - - - - - -
30/07:00am 9.1 SSW 15 22 - - 0.6 - - - - - - -
30/06:30am 8.8 SSW 13 20 - - 0.6 - - - - - - -
30/06:00am 9.2 SSW 14 20 - - 0.6 - - - - - - -
30/05:30am 8.9 SSW 13 19 - - 0.6 - - - - - - -
30/05:00am 9.0 SSW 14 19 - - 0.6 - - - - - - -
30/04:30am 9.0 SSW 14 24 - - 0.6 - - - - - - -
30/04:00am 8.8 SSW 13 19 - - 0.6 - - - - - - -
30/03:30am 8.9 S 13 19 - - 0.6 - - - - - - -
30/03:00am 8.9 SSW 12 18 - - 0.6 - - - - - - -
30/02:30am 8.8 SSW 12 20 - - 0.6 - - - - - - -
30/02:00am 9.0 SSW 15 21 - - 0.6 - - - - - - -
30/01:30am 8.3 S 11 18 - - 0.6 - - - - - - -
30/01:00am 8.7 SW 12 17 - - 0.6 - - - - - - -
30/12:30am 8.3 SSW 15 21 - - 0.6 - - - - - - -
30/12:00am 8.3 SSW 11 21 - - 0.6 - - - - - - -
 
Date/Time
EST
Temp

°C
Wind Pressure Rain
since 9am
mm
Weather Cloud Vis
km
Sea
Height
m
Swell
Dir
 
Speed
knots
Gust
knots
hPa Trend Height
m
Period
s
Dir
29/11:30pm 8.6 SSW 16 25 - - 0.6 - - - - - - -
29/11:00pm 8.8 SSW 15 24 - - 0.6 - - - - - - -
29/10:30pm 8.7 SSW 15 24 - - 0.6 - - - - - - -
29/10:09pm 9.0 SSW 15 26 - - 0.4 - - - - - - -
29/10:00pm 8.9 SSW 14 24 - - 0.4 - - - - - - -
29/09:30pm 8.7 SW 15 23 - - 0.4 - - - - - - -
29/09:00pm 8.7 SW 18 30 - - 0.4 Rain - - - - - -
29/08:52pm 8.9 SSW 16 30 - - 0.2 - - - - - - -
29/08:30pm 8.9 SW 15 25 - - 0.2 - - - - - - -
29/08:00pm 8.9 SW 13 19 - - 0.2 - - - - - - -
29/07:30pm 9.1 SSW 14 21 - - 0.0 - - - - - - -
29/07:04pm 9.2 SSW 17 27 - - 0.0 - - - - - - -
29/07:00pm 9.5 SSW 16 26 - - 0.0 - - - - - - -
29/06:30pm 9.3 SW 15 23 - - 0.0 - - - - - - -
29/06:00pm 9.8 SSW 16 24 - - 0.0 - - - - - - -
29/05:30pm 9.1 SW 17 24 - - 0.0 - - - - - - -
29/05:00pm 9.8 SW 15 23 - - 0.0 - - - - - - -
29/04:30pm 9.3 SW 16 25 - - 0.0 - - - - - - -
29/04:00pm 10.2 SW 16 24 - - 0.0 - - - - - - -
29/03:42pm 9.7 SW 15 25 - - 0.0 - - - - - - -
29/03:30pm 9.3 SW 18 24 - - 0.0 - - - - - - -
29/03:00pm 10.0 SSW 15 21 - - 0.0 - - - - - - -
29/02:30pm 9.9 SW 19 33 - - 0.0 - - - - - - -
29/02:09pm 10.4 SSW 16 27 - - 0.0 - - - - - - -
29/02:00pm 11.2 SW 17 25 - - 0.0 - - - - - - -
29/01:50pm 11.0 SW 19 29 - - 0.0 - - - - - - -
29/01:30pm 11.3 SW 19 26 - - 0.0 - - - - - - -
29/01:00pm 11.3 SW 20 28 - - 0.0 - - - - - - -
29/12:36pm 10.1 SW 17 27 - - 0.0 - - - - - - -
29/12:30pm 10.1 SSW 19 27 - - 0.0 - - - - - - -
29/12:00pm 10.5 SW 18 29 - - 0.0 - - - - - - -
29/11:58am 10.8 SW 19 29 - - 0.0 - - - - - - -
29/11:30am 9.9 SSW 17 24 - - 0.0 - - - - - - -
29/11:02am 10.0 SW 19 29 - - 0.0 - - - - - - -
29/11:00am 9.9 SW 19 29 - - 0.0 - - - - - - -
29/10:32am 9.4 SSW 16 26 - - 0.0 - - - - - - -
29/10:30am 9.4 SSW 17 26 - - 0.0 - - - - - - -
29/10:00am 9.4 SSW 17 25 - - 0.0 - - - - - - -
29/09:30am 8.5 SW 18 27 - - 0.0 - - - - - - -
29/09:15am 9.2 SSW 16 27 - - 0.0 - - - - - - -
29/09:00am 8.9 SW 15 24 - - 0.4 - - - - - - -
29/08:44am 8.8 SW 15 26 - - 0.4 - - - - - - -
29/08:30am 8.7 SW 16 23 - - 0.4 - - - - - - -
29/08:19am 8.8 SW 15 25 - - 0.4 - - - - - - -
29/08:00am 8.4 SW 16 25 - - 0.4 - - - - - - -
29/07:30am 8.0 SW 14 19 - - 0.4 - - - - - - -
29/07:01am 8.2 SSW 15 28 - - 0.4 - - - - - - -
29/07:00am 8.1 SSW 15 23 - - 0.4 - - - - - - -
29/06:30am 8.3 SSW 15 24 - - 0.4 - - - - - - -
29/06:02am 8.3 SSW 15 29 - - 0.4 - - - - - - -
29/06:00am 8.3 SSW 14 21 - - 0.4 - - - - - - -
29/05:30am 8.2 SSW 16 24 - - 0.4 - - - - - - -
29/05:00am 7.9 SSW 13 21 - - 0.4 - - - - - - -
29/04:30am 7.7 SSW 12 18 - - 0.4 - - - - - - -
29/04:00am 7.5 SSW 13 19 - - 0.4 - - - - - - -
29/03:30am 7.8 S 15 22 - - 0.4 - - - - - - -
29/03:00am 7.8 SSW 15 22 - - 0.4 - - - - - - -
29/02:30am 7.7 S 14 19 - - 0.4 - - - - - - -
29/02:00am 8.0 S 13 21 - - 0.4 - - - - - - -
29/01:30am 8.0 S 14 21 - - 0.4 - - - - - - -
29/01:01am 8.0 S 15 25 - - 0.4 - - - - - - -
29/01:00am 8.0 S 16 25 - - 0.4 - - - - - - -
29/12:54am 8.3 S 15 25 - - 0.4 - - - - - - -
29/12:30am 8.3 S 15 23 - - 0.4 - - - - - - -
29/12:00am 8.4 S 15 24 - - 0.4 - - - - - - -
 
Date/Time
EST
Temp

°C
Wind Pressure Rain
since 9am
mm
Weather Cloud Vis
km
Sea
Height
m
Swell
Dir
 
Speed
knots
Gust
knots
hPa Trend Height
m
Period
s
Dir
28/11:30pm 8.4 S 16 24 - - 0.4 - - - - - - -
28/11:00pm 8.4 SSW 17 23 - - 0.4 - - - - - - -
28/10:30pm 8.4 SSW 15 22 - - 0.4 - - - - - - -
28/10:00pm 8.1 SSW 16 24 - - 0.4 - - - - - - -
28/09:30pm 8.6 SSW 18 25 - - 0.4 - - - - - - -
28/09:00pm 8.3 SSW 14 22 - - 0.4 - - - - - - -
28/08:30pm 8.4 SSW 14 20 - - 0.4 - - - - - - -
28/08:00pm 8.5 S 15 23 - - 0.4 - - - - - - -
28/07:39pm 8.2 SSW 15 25 - - 0.4 - - - - - - -
28/07:30pm 8.3 SSW 15 25 - - 0.4 - - - - - - -
28/07:00pm 8.3 S 15 23 - - 0.4 - - - - - - -
28/06:30pm 8.2 S 15 21 - - 0.4 - - - - - - -
28/06:00pm 8.4 SSW 16 23 - - 0.4 - - - - - - -
28/05:30pm 8.9 SSW 15 23 - - 0.4 - - - - - - -
28/05:00pm 9.5 SSW 16 25 - - 0.4 - - - - - - -
28/04:30pm 10.1 SSW 15 21 - - 0.4 - - - - - - -
28/04:00pm 10.8 SSW 13 20 - - 0.4 - - - - - - -
28/03:30pm 10.6 SSW 14 22 - - 0.4 - - - - - - -
28/03:00pm 10.2 S 14 21 - - 0.4 - - - - - - -
28/02:30pm 10.3 S 14 20 - - 0.4 - - - - - - -
28/02:00pm 10.2 SSW 14 20 - - 0.4 - - - - - - -
28/01:30pm 10.5 S 13 19 - - 0.4 - - - - - - -
28/01:00pm 10.9 S 13 18 - - 0.4 - - - - - - -
28/12:30pm 10.3 S 11 19 - - 0.4 - - - - - - -
28/12:00pm 10.4 S 10 16 - - 0.2 Rain - - - - - -
28/11:30am 11.3 SSW 7 12 - - 0.0 - - - - - - -
28/11:00am 13.5 SSW 10 15 - - 0.0 - - - - - - -
28/10:30am 12.2 SSW 11 17 - - 0.0 - - - - - - -
28/10:00am 11.8 SSW 12 21 - - 0.0 - - - - - - -
28/09:30am 11.2 SSW 14 20 - - 0.0 - - - - - - -
28/09:00am 11.1 SSW 12 19 - - 0.2 - - - - - - -
28/08:30am 10.7 SSW 13 18 - - 0.2 - - - - - - -
28/08:00am 10.0 S 14 21 - - 0.2 - - - - - - -
28/07:30am 9.8 SSW 13 19 - - 0.2 - - - - - - -
28/07:00am 9.6 S 13 18 - - 0.2 - - - - - - -
28/06:30am 9.6 SSW 13 19 - - 0.2 - - - - - - -
28/06:00am 9.3 SSW 11 19 - - 0.2 - - - - - - -
28/05:30am 8.7 SSW 13 22 - - 0.2 - - - - - - -
28/05:22am 8.7 SSW 15 26 - - 0.2 - - - - - - -
28/05:00am 8.6 SSW 11 17 - - 0.2 - - - - - - -
28/04:30am 8.5 SW 11 19 - - 0.2 - - - - - - -
28/04:00am 8.8 SW 15 23 - - 0.0 - - - - - - -
28/03:30am 9.1 SW 14 22 - - 0.0 - - - - - - -
28/03:00am 9.8 SSW 16 23 - - 0.0 - - - - - - -
28/02:30am 9.7 SSW 12 19 - - 0.0 - - - - - - -
28/02:00am 9.7 SSW 14 22 - - 0.0 - - - - - - -
28/01:30am 10.0 SSW 16 23 - - 0.0 - - - - - - -
28/01:00am 10.1 SSW 14 23 - - 0.0 - - - - - - -
28/12:30am 9.3 SSW 17 27 - - 0.0 - - - - - - -
28/12:22am 9.7 SSW 15 27 - - 0.0 - - - - - - -
28/12:00am 10.1 S 14 20 - - 0.0 - - - - - - -
 
Date/Time
EST
Temp

°C
Wind Pressure Rain
since 9am
mm
Weather Cloud Vis
km
Sea
Height
m
Swell
Dir
 
Speed
knots
Gust
knots
hPa Trend Height
m
Period
s
Dir
27/11:30pm 10.2 S 14 20 - - 0.0 - - - - - - -
27/11:00pm 10.2 SSW 16 23 - - 0.0 - - - - - - -
27/10:30pm 10.2 SSW 15 21 - - 0.0 - - - - - - -
27/10:00pm 10.6 SSW 16 26 - - 0.0 - - - - - - -
27/09:57pm 10.5 SSW 15 26 - - 0.0 - - - - - - -
27/09:30pm 10.6 SSW 15 22 - - 0.0 - - - - - - -
27/09:00pm 10.7 SSW 15 22 - - 0.0 - - - - - - -
27/08:30pm 10.9 S 14 20 - - 0.0 - - - - - - -
27/08:00pm 10.9 S 12 20 - - 0.0 - - - - - - -
27/07:30pm 10.8 S 12 20 - - 0.0 - - - - - - -
27/07:00pm 10.8 S 11 18 - - 0.0 - - - - - - -
27/06:30pm 11.1 SSW 9 13 - - 0.0 - - - - - - -
27/06:00pm 11.3 SSW 12 17 - - 0.0 - - - - - - -
27/05:30pm 11.7 SSW 10 16 - - 0.0 - - - - - - -
27/05:00pm 12.3 SSW 11 17 - - 0.0 - - - - - - -
27/04:30pm 12.9 SSW 11 17 - - 0.0 - - - - - - -
27/04:00pm 13.6 SW 10 17 - - 0.0 - - - - - - -
27/03:30pm 12.8 SSW 12 21 - - 0.0 - - - - - - -
27/03:00pm 12.6 SSW 13 19 - - 0.0 - - - - - - -
27/02:30pm 12.8 SW 13 20 - - 0.0 - - - - - - -
27/02:00pm 13.0 SSW 10 15 - - 0.0 - - - - - - -

Other Formats:

Comma delimited format used in spreadsheet applications
http://www.bom.gov.au/fwo/IDV60701/IDV60701.94846.axf

JavaScript Object Notation format (JSON) in row-major order
http://www.bom.gov.au/fwo/IDV60701/IDV60701.94846.json